Husum, Washington
Current Conditions -  °F | °C
As of 12:59 AM on Wednesday 22 Oct 2014 (Local Time) from K4S2 Reporting Station
Drizzle Drizzle  
Wind Chill: 50°   Ceiling: 9000
Heat Index: 50°   Visibility: 10mi
Dew Point: 48°   Wind: 0mph
Humidity: 94%   Direction: NA
Pressure: 29.89"   Gusts: NA
Location:  45.8°N, 121.49°W
Report Text: K4S2 220759Z AUTO 00000KT 10SM DZ OVC090 10/09 A2989 RMK AO2 SLPNO
Loading
Personal Weather Stations






























Interactive Weather Map
Tropical Storm Tracking
New forecast layout! Learn more

10-Day Weather Forecast

Advertisements
Track Severe Weather on mobile